Time;durP1;ratioP1;P1;durP2;ratioP2;P2;SDS_P1;SDS_P2;PMS_P1;PMS_P2;Temp;Humidity;BMP_temperature;BMP_pressure;BME280_temperature;BME280_humidity;BME280_pressure;Samples;Min_cycle;Max_cycle;Signal;HPM_P1;HPM_P2
2023/06/06 00:01:45;;;;;;;;;;;;;;;20.10;71.33;97285.59;617678;229;64647;-61
2023/06/06 00:04:13;;;;;;;;;;;;;;;20.12;71.32;97293.34;617729;229;66712;-61
2023/06/06 00:06:44;;;;;;;;;;;;;;;20.11;71.34;97297.89;617721;229;65034;-61
2023/06/06 00:09:09;;;;;;;;;;;;;;;20.11;71.33;97295.22;617691;228;66835;-62
2023/06/06 00:11:39;;;;;;;;;;;;;;;20.10;71.30;97293.59;617730;229;66888;-62
2023/06/06 00:14:09;;;;;;;;;;;;;;;20.11;71.32;97292.55;618634;229;65015;-62
2023/06/06 00:16:37;;;;;;;;;;;;;;;20.11;71.34;97295.22;618787;229;66788;-62
2023/06/06 00:19:05;;;;;;;;;;;;;;;20.11;71.35;97283.75;618811;229;66779;-61
2023/06/06 00:21:35;;;;;;;;;;;;;;;20.10;71.36;97292.80;618823;229;62997;-60
2023/06/06 00:24:01;;;;;;;;;;;;;;;20.09;71.36;97289.33;618774;228;64686;-61
2023/06/06 00:26:29;;;;;;;;;;;;;;;20.10;71.38;97282.92;618840;229;66765;-60
2023/06/06 00:28:57;;;;;;;;;;;;;;;20.10;71.33;97290.13;618799;229;62482;-60
2023/06/06 00:31:24;;;;;;;;;;;;;;;20.10;71.35;97277.58;618826;229;64728;-60
2023/06/06 00:33:52;;;;;;;;;;;;;;;20.10;71.35;97284.79;618856;229;64380;-60
2023/06/06 00:36:19;;;;;;;;;;;;;;;20.10;71.34;97280.25;618801;229;63715;-60
2023/06/06 00:38:47;;;;;;;;;;;;;;;20.09;71.32;97291.20;618869;229;67623;-60
2023/06/06 00:41:15;;;;;;;;;;;;;;;20.10;71.34;97285.59;618781;229;67025;-60
2023/06/06 00:43:44;;;;;;;;;;;;;;;20.09;71.36;97283.99;618825;229;65029;-60
2023/06/06 00:46:13;;;;;;;;;;;;;;;20.10;71.35;97285.59;618811;229;64717;-61
2023/06/06 00:48:40;;;;;;;;;;;;;;;20.09;71.33;97278.66;618831;229;66705;-61
2023/06/06 00:51:08;;;;;;;;;;;;;;;20.10;71.36;97282.13;618858;229;65066;-60
2023/06/06 00:53:37;;;;;;;;;;;;;;;20.10;71.35;97277.58;618782;229;67628;-60
2023/06/06 00:56:05;;;;;;;;;;;;;;;20.09;71.34;97270.66;618826;229;66733;-60
2023/06/06 00:58:32;;;;;;;;;;;;;;;20.10;71.36;97271.45;618832;229;65069;-60
2023/06/06 01:01:01;;;;;;;;;;;;;;;20.09;71.33;97281.33;618808;229;66716;-60
2023/06/06 01:03:29;;;;;;;;;;;;;;;20.09;71.33;97275.19;618863;229;66828;-61
2023/06/06 01:05:57;;;;;;;;;;;;;;;20.09;71.33;97270.66;618840;229;62945;-60
2023/06/06 01:08:25;;;;;;;;;;;;;;;20.09;71.33;97273.31;618797;229;67171;-60
2023/06/06 01:10:53;;;;;;;;;;;;;;;20.09;71.30;97278.66;618812;229;66749;-60
2023/06/06 01:13:26;;;;;;;;;;;;;;;20.09;71.29;97275.98;618127;226;67465;-61
2023/06/06 01:15:55;;;;;;;;;;;;;;;20.09;71.27;97278.66;617697;229;66634;-61
2023/06/06 01:18:23;;;;;;;;;;;;;;;20.09;71.28;97278.66;617503;228;66756;-61
2023/06/06 01:20:52;;;;;;;;;;;;;;;20.09;71.28;97275.98;617658;229;65187;-60
2023/06/06 01:23:19;;;;;;;;;;;;;;;20.09;71.30;97277.86;617709;229;64278;-60
2023/06/06 01:25:48;;;;;;;;;;;;;;;20.09;71.28;97272.52;617646;229;66735;-60
2023/06/06 01:28:16;;;;;;;;;;;;;;;20.09;71.28;97281.33;617722;229;64896;-60
2023/06/06 01:30:45;;;;;;;;;;;;;;;20.08;71.28;97277.06;617701;229;66801;-60
2023/06/06 01:33:29;;;;;;;;;;;;;;;20.08;71.29;97273.56;617702;229;66769;-59
2023/06/06 01:36:17;;;;;;;;;;;;;;;20.08;71.29;97270.89;617735;229;62931;-60
2023/06/06 01:38:46;;;;;;;;;;;;;;;20.07;71.30;97264.77;617679;228;66812;-60
2023/06/06 01:41:16;;;;;;;;;;;;;;;20.09;71.31;97264.52;617721;229;66858;-60
2023/06/06 01:43:45;;;;;;;;;;;;;;;20.08;71.31;97265.56;617712;229;62575;-61
2023/06/06 01:46:14;;;;;;;;;;;;;;;20.08;71.29;97260.22;617731;229;66682;-63
2023/06/06 01:48:41;;;;;;;;;;;;;;;20.07;71.30;97258.63;617822;229;64324;-62
2023/06/06 01:51:10;;;;;;;;;;;;;;;20.07;71.31;97254.09;617726;229;65419;-63
2023/06/06 01:53:38;;;;;;;;;;;;;;;20.07;71.31;97256.76;617734;229;67483;-63
2023/06/06 01:56:12;;;;;;;;;;;;;;;20.08;71.31;97260.22;617724;229;64908;-63
2023/06/06 01:58:34;;;;;;;;;;;;;;;20.07;71.30;97254.09;617598;228;65168;-61
2023/06/06 02:01:02;;;;;;;;;;;;;;;20.06;71.26;97257.83;617786;229;67654;-60
2023/06/06 02:03:30;;;;;;;;;;;;;;;20.07;71.30;97259.42;617729;229;66794;-60
2023/06/06 02:06:01;;;;;;;;;;;;;;;20.06;71.28;97268.50;617725;229;62913;-60
2023/06/06 02:08:28;;;;;;;;;;;;;;;20.06;71.28;97263.17;617733;229;64418;-59
2023/06/06 02:10:56;;;;;;;;;;;;;;;20.07;71.29;97264.77;617653;229;67760;-59
2023/06/06 02:13:25;;;;;;;;;;;;;;;20.06;71.28;97265.84;617578;229;65062;-60
2023/06/06 02:15:52;;;;;;;;;;;;;;;20.06;71.31;97265.84;617739;229;65315;-59
2023/06/06 02:18:20;;;;;;;;;;;;;;;20.07;71.30;97269.30;617731;229;65239;-59
2023/06/06 02:20:47;;;;;;;;;;;;;;;20.08;71.33;97270.89;617693;229;65115;-59
2023/06/06 02:23:16;;;;;;;;;;;;;;;20.06;71.32;97268.50;617713;229;67178;-60
2023/06/06 02:25:43;;;;;;;;;;;;;;;20.07;71.32;97270.09;617781;229;64705;-62
2023/06/06 02:28:14;;;;;;;;;;;;;;;20.07;71.33;97267.43;617778;229;64958;-62
2023/06/06 02:30:43;;;;;;;;;;;;;;;20.07;71.32;97275.44;617727;229;64830;-62
2023/06/06 02:33:10;;;;;;;;;;;;;;;20.06;71.33;97273.84;617668;229;67242;-62
2023/06/06 02:35:38;;;;;;;;;;;;;;;20.06;71.35;97265.84;617720;229;65785;-62
2023/06/06 02:38:05;;;;;;;;;;;;;;;20.06;71.35;97268.50;617686;229;65045;-62
2023/06/06 02:40:33;;;;;;;;;;;;;;;20.07;71.34;97269.30;617803;229;63958;-62
2023/06/06 02:43:01;;;;;;;;;;;;;;;20.06;71.32;97271.17;617726;229;65933;-62
2023/06/06 02:45:28;;;;;;;;;;;;;;;20.07;71.35;97264.77;617733;229;64480;-62
2023/06/06 02:47:56;;;;;;;;;;;;;;;20.06;71.33;97267.70;617753;229;67307;-62
2023/06/06 02:50:24;;;;;;;;;;;;;;;20.05;71.34;97264.24;617704;229;64937;-62
2023/06/06 02:52:53;;;;;;;;;;;;;;;20.06;71.34;97273.84;617805;229;66474;-62
2023/06/06 02:55:21;;;;;;;;;;;;;;;20.06;71.37;97273.84;617740;229;66840;-61
2023/06/06 02:57:50;;;;;;;;;;;;;;;20.06;71.33;97275.70;617710;229;65185;-60
2023/06/06 03:00:17;;;;;;;;;;;;;;;20.05;71.32;97272.25;617725;229;66663;-60
2023/06/06 03:02:45;;;;;;;;;;;;;;;20.06;71.33;97271.17;617732;229;64000;-60
2023/06/06 03:05:13;;;;;;;;;;;;;;;20.06;71.34;97273.05;617744;229;63712;-61
2023/06/06 03:07:41;;;;;;;;;;;;;;;20.05;71.33;97274.91;617712;229;66803;-60
2023/06/06 03:10:09;;;;;;;;;;;;;;;20.05;71.34;97277.58;617692;229;67752;-60
2023/06/06 03:12:38;;;;;;;;;;;;;;;20.06;71.35;97278.38;617416;228;47599;-60
2023/06/06 03:15:07;;;;;;;;;;;;;;;20.06;71.33;97283.72;617715;229;66835;-60
2023/06/06 03:17:36;;;;;;;;;;;;;;;20.05;71.34;97272.25;617722;228;44881;-60
2023/06/06 03:20:06;;;;;;;;;;;;;;;20.05;71.35;97282.92;617751;229;65050;-63
2023/06/06 03:22:33;;;;;;;;;;;;;;;20.06;71.33;97273.05;617693;228;66963;-63
2023/06/06 03:25:01;;;;;;;;;;;;;;;20.05;71.33;97272.25;617724;229;66785;-63
2023/06/06 03:27:29;;;;;;;;;;;;;;;20.04;71.29;97270.63;617740;229;65120;-63
2023/06/06 03:29:57;;;;;;;;;;;;;;;20.04;71.29;97275.95;617674;229;66660;-63
2023/06/06 03:32:26;;;;;;;;;;;;;;;20.05;71.31;97272.25;617813;228;43965;-62
2023/06/06 03:34:53;;;;;;;;;;;;;;;20.04;71.32;97267.95;617707;229;65107;-62
2023/06/06 03:37:21;;;;;;;;;;;;;;;20.04;71.29;97262.61;617711;229;64699;-62
2023/06/06 03:39:49;;;;;;;;;;;;;;;20.04;71.27;97267.95;617712;229;65444;-62
2023/06/06 03:42:17;;;;;;;;;;;;;;;20.04;71.25;97270.63;617721;229;65723;-62
2023/06/06 03:44:44;;;;;;;;;;;;;;;20.05;71.24;97269.58;617756;229;64217;-62
2023/06/06 03:47:12;;;;;;;;;;;;;;;20.05;71.25;97285.59;617722;229;66781;-62
2023/06/06 03:49:39;;;;;;;;;;;;;;;20.04;71.25;97273.28;617681;229;65225;-62
2023/06/06 03:52:08;;;;;;;;;;;;;;;20.04;71.24;97265.28;617716;229;67993;-62
2023/06/06 03:54:36;;;;;;;;;;;;;;;20.04;71.24;97269.82;617681;229;65256;-62
2023/06/06 03:57:04;;;;;;;;;;;;;;;20.05;71.25;97272.25;617702;229;64996;-62
2023/06/06 03:59:32;;;;;;;;;;;;;;;20.05;71.25;97274.91;617663;229;67318;-62
2023/06/06 04:01:59;;;;;;;;;;;;;;;20.04;71.26;97275.95;617683;229;66965;-62
2023/06/06 04:04:27;;;;;;;;;;;;;;;20.05;71.25;97288.25;617688;229;63056;-62
2023/06/06 04:06:54;;;;;;;;;;;;;;;20.05;71.24;97288.25;617673;229;67031;-62
2023/06/06 04:09:22;;;;;;;;;;;;;;;20.04;71.26;97286.63;617739;229;64643;-62
2023/06/06 04:11:49;;;;;;;;;;;;;;;20.04;71.27;97286.63;617722;229;64829;-62
2023/06/06 04:14:17;;;;;;;;;;;;;;;20.04;71.28;97281.29;618652;229;64579;-62
2023/06/06 04:16:45;;;;;;;;;;;;;;;20.04;71.29;97280.49;618846;229;64355;-62
2023/06/06 04:19:12;;;;;;;;;;;;;;;20.04;71.28;97286.63;618790;229;65111;-62
2023/06/06 04:21:40;;;;;;;;;;;;;;;20.04;71.28;97280.49;618783;229;64833;-62
2023/06/06 04:24:07;;;;;;;;;;;;;;;20.03;71.29;97274.36;618796;229;67490;-62
2023/06/06 04:26:36;;;;;;;;;;;;;;;20.04;71.29;97275.95;618803;229;62800;-62
2023/06/06 04:29:04;;;;;;;;;;;;;;;20.03;71.31;97271.69;618784;229;67198;-63
2023/06/06 04:31:33;;;;;;;;;;;;;;;20.03;71.33;97274.36;618685;229;64704;-63
2023/06/06 04:34:03;;;;;;;;;;;;;;;20.03;71.33;97279.70;618777;229;65062;-61
2023/06/06 04:36:33;;;;;;;;;;;;;;;20.04;71.30;97275.16;618810;229;67674;-60
2023/06/06 04:39:00;;;;;;;;;;;;;;;20.03;71.33;97285.03;618792;228;67851;-59
2023/06/06 04:41:33;;;;;;;;;;;;;;;20.04;71.35;97280.49;618806;229;65094;-59
2023/06/06 04:44:04;;;;;;;;;;;;;;;20.03;71.35;97273.56;618792;229;66816;-60
2023/06/06 04:46:32;;;;;;;;;;;;;;;20.03;71.36;97287.70;618786;229;64886;-61
2023/06/06 04:49:01;;;;;;;;;;;;;;;20.03;71.36;97287.70;618776;229;65018;-60
2023/06/06 04:51:30;;;;;;;;;;;;;;;20.02;71.37;97288.73;618758;228;45488;-60
2023/06/06 04:53:59;;;;;;;;;;;;;;;20.04;71.38;97283.16;618794;229;64764;-60
2023/06/06 04:56:28;;;;;;;;;;;;;;;20.02;71.39;97283.41;618792;229;65039;-61
2023/06/06 04:58:56;;;;;;;;;;;;;;;20.02;71.39;97288.73;618800;229;65052;-61
2023/06/06 05:01:24;;;;;;;;;;;;;;;20.03;71.41;97284.23;618799;229;67026;-61
2023/06/06 05:03:51;;;;;;;;;;;;;;;20.03;71.42;97279.70;618798;229;65142;-60
2023/06/06 05:06:19;;;;;;;;;;;;;;;20.02;71.42;97282.61;618811;229;67348;-60
2023/06/06 05:08:46;;;;;;;;;;;;;;;20.02;71.44;97280.73;618826;229;66953;-62
2023/06/06 05:11:14;;;;;;;;;;;;;;;20.02;71.44;97283.41;618795;229;65166;-62
2023/06/06 05:13:41;;;;;;;;;;;;;;;20.02;71.45;97288.73;618064;229;67223;-62
2023/06/06 05:16:09;;;;;;;;;;;;;;;20.02;71.45;97286.08;617743;229;67085;-62
2023/06/06 05:18:37;;;;;;;;;;;;;;;20.02;71.46;97288.73;617701;229;62966;-62
2023/06/06 05:21:05;;;;;;;;;;;;;;;20.02;71.46;97286.08;617651;229;67221;-62
2023/06/06 05:23:32;;;;;;;;;;;;;;;20.03;71.45;97289.57;617687;229;67057;-62
2023/06/06 05:26:00;;;;;;;;;;;;;;;20.03;71.50;97281.56;617715;229;65080;-62
2023/06/06 05:28:30;;;;;;;;;;;;;;;20.02;71.49;97285.27;617829;228;46835;-61
2023/06/06 05:30:59;;;;;;;;;;;;;;;20.01;71.50;97276.47;617723;229;65552;-61
2023/06/06 05:33:27;;;;;;;;;;;;;;;20.02;71.51;97272.73;617510;228;63402;-60
2023/06/06 05:35:55;;;;;;;;;;;;;;;20.02;71.53;97280.73;617730;229;67214;-59
2023/06/06 05:38:24;;;;;;;;;;;;;;;20.02;71.53;97278.07;617676;229;67364;-61
2023/06/06 05:40:51;;;;;;;;;;;;;;;20.02;71.51;97278.07;617757;229;65069;-62
2023/06/06 05:43:19;;;;;;;;;;;;;;;20.02;71.53;97283.41;617701;229;67262;-62
2023/06/06 05:45:46;;;;;;;;;;;;;;;20.02;71.54;97280.73;617703;229;67016;-62
2023/06/06 05:48:14;;;;;;;;;;;;;;;20.02;71.55;97280.73;617642;229;65034;-62
2023/06/06 05:50:43;;;;;;;;;;;;;;;20.02;71.57;97272.73;617692;229;64938;-62
2023/06/06 05:53:11;;;;;;;;;;;;;;;20.02;71.56;97277.27;617675;229;67070;-62
2023/06/06 05:55:38;;;;;;;;;;;;;;;20.02;71.56;97269.27;617308;229;65031;-62
2023/06/06 05:58:06;;;;;;;;;;;;;;;20.02;71.61;97261.27;617583;229;66913;-63
2023/06/06 06:00:35;;;;;;;;;;;;;;;20.02;71.61;97261.27;617686;229;66714;-62
2023/06/06 06:03:03;;;;;;;;;;;;;;;20.02;71.60;97258.59;618109;227;64849;-63
2023/06/06 06:05:31;;;;;;;;;;;;;;;20.01;71.64;97263.13;617247;230;65321;-63
2023/06/06 06:08:00;;;;;;;;;;;;;;;20.03;71.63;97278.90;617330;230;64897;-63
2023/06/06 06:10:28;;;;;;;;;;;;;;;19.99;71.22;97278.59;617150;230;65716;-63
2023/06/06 06:12:55;;;;;;;;;;;;;;;20.00;71.58;97274.88;617236;229;65057;-62
2023/06/06 06:15:23;;;;;;;;;;;;;;;20.02;71.82;97266.60;617246;230;64830;-62
2023/06/06 06:17:50;;;;;;;;;;;;;;;20.02;71.58;97272.73;617274;230;62867;-60
2023/06/06 06:20:19;;;;;;;;;;;;;;;20.02;71.56;97272.73;617348;230;64938;-60
2023/06/06 06:22:47;;;;;;;;;;;;;;;20.04;71.45;97272.48;617198;230;66891;-60
2023/06/06 06:25:20;;;;;;;;;;;;;;;20.03;71.36;97266.36;617270;230;63855;-59
2023/06/06 06:27:45;;;;;;;;;;;;;;;20.05;71.38;97266.91;617083;229;64924;-60
2023/06/06 06:30:14;;;;;;;;;;;;;;;20.05;71.36;97269.58;617208;230;64963;-60
2023/06/06 06:32:42;;;;;;;;;;;;;;;20.05;71.36;97268.75;617306;230;65019;-59
2023/06/06 06:35:10;;;;;;;;;;;;;;;20.06;71.32;97276.51;617283;230;67246;-60
2023/06/06 06:37:39;;;;;;;;;;;;;;;20.05;71.34;97266.91;617210;230;64997;-63
2023/06/06 06:40:10;;;;;;;;;;;;;;;20.06;71.33;97262.38;617281;230;65091;-63
2023/06/06 06:42:46;;;;;;;;;;;;;;;20.07;71.39;97266.63;617280;230;67277;-62
2023/06/06 06:45:23;;;;;;;;;;;;;;;20.07;71.31;97264.77;617241;229;45283;-64
2023/06/06 06:47:51;;;;;;;;;;;;;;;20.07;71.30;97261.30;617318;230;65154;-62
2023/06/06 06:50:18;;;;;;;;;;;;;;;20.07;71.33;97262.09;617271;230;66837;-63
2023/06/06 06:52:46;;;;;;;;;;;;;;;20.09;71.31;97267.19;617155;230;67063;-63
2023/06/06 06:55:13;;;;;;;;;;;;;;;20.08;71.37;97255.72;617307;230;62963;-63
2023/06/06 06:57:43;;;;;;;;;;;;;;;20.09;71.37;97256.52;617277;230;64734;-62
2023/06/06 07:00:18;;;;;;;;;;;;;;;20.08;71.41;97263.72;617270;230;66787;-63
2023/06/06 07:02:42;;;;;;;;;;;;;;;20.09;71.39;97257.31;616974;229;65089;-63
2023/06/06 07:05:10;;;;;;;;;;;;;;;20.09;71.40;97251.97;617263;230;64671;-63
2023/06/06 07:07:44;;;;;;;;;;;;;;;20.10;71.40;97261.58;617286;230;65171;-63
2023/06/06 07:10:13;;;;;;;;;;;;;;;20.13;71.61;97258.41;617308;230;65099;-63
2023/06/06 07:12:41;;;;;;;;;;;;;;;20.13;71.37;97261.08;617074;229;64807;-63
2023/06/06 07:15:09;;;;;;;;;;;;;;;20.12;71.49;97259.45;617321;230;64917;-63
2023/06/06 07:17:36;;;;;;;;;;;;;;;20.12;71.73;97256.79;617252;230;65104;-63
2023/06/06 07:20:05;;;;;;;;;;;;;;;20.11;71.59;97249.86;617223;230;65168;-62
2023/06/06 07:22:36;;;;;;;;;;;;;;;20.12;71.63;97253.33;617190;230;64764;-62
2023/06/06 07:25:04;;;;;;;;;;;;;;;20.11;71.53;97249.86;617236;230;62996;-62
2023/06/06 07:27:36;;;;;;;;;;;;;;;20.12;71.42;97254.12;617252;230;67210;-61
2023/06/06 07:30:06;;;;;;;;;;;;;;;20.13;71.14;97255.75;617193;230;67025;-62
2023/06/06 07:32:34;;;;;;;;;;;;;;;20.14;70.95;97256.55;617253;230;65016;-60
2023/06/06 07:35:01;;;;;;;;;;;;;;;20.14;71.39;97261.88;617244;230;65130;-60
2023/06/06 07:37:29;;;;;;;;;;;;;;;20.13;71.62;97258.41;617278;230;67049;-59
2023/06/06 07:39:56;;;;;;;;;;;;;;;20.13;71.71;97254.92;617245;230;62893;-59
2023/06/06 07:42:25;;;;;;;;;;;;;;;20.13;71.75;97258.41;617017;228;67215;-60
2023/06/06 07:44:55;;;;;;;;;;;;;;;20.14;71.78;97256.55;617261;230;66896;-60
2023/06/06 07:47:23;;;;;;;;;;;;;;;20.13;71.80;97253.08;617234;229;62959;-60
2023/06/06 07:49:50;;;;;;;;;;;;;;;20.13;71.79;97250.41;617187;230;67232;-60
2023/06/06 07:52:18;;;;;;;;;;;;;;;20.14;71.79;97248.54;617282;230;67085;-60
2023/06/06 07:54:45;;;;;;;;;;;;;;;20.14;71.78;97252.01;617256;230;64844;-60
2023/06/06 07:57:16;;;;;;;;;;;;;;;20.14;71.80;97249.34;617214;230;67146;-60
2023/06/06 07:59:43;;;;;;;;;;;;;;;20.14;71.76;97252.01;617249;230;67412;-60
2023/06/06 08:02:14;;;;;;;;;;;;;;;20.14;71.82;97252.01;617189;230;64837;-59
2023/06/06 08:04:50;;;;;;;;;;;;;;;20.14;71.82;97257.34;617202;230;67307;-60
2023/06/06 08:07:15;;;;;;;;;;;;;;;20.14;71.85;97256.55;617035;229;65311;-60
2023/06/06 08:09:43;;;;;;;;;;;;;;;20.14;71.82;97254.67;613860;230;65118;-60
2023/06/06 08:12:11;;;;;;;;;;;;;;;20.14;71.83;97260.01;617194;230;66648;-60
2023/06/06 08:14:38;;;;;;;;;;;;;;;20.14;71.84;97253.88;617235;230;66954;-61
2023/06/06 08:17:06;;;;;;;;;;;;;;;20.15;71.86;97258.14;617208;230;65058;-60
2023/06/06 08:19:35;;;;;;;;;;;;;;;20.15;71.87;97253.59;617246;230;64989;-60
2023/06/06 08:22:02;;;;;;;;;;;;;;;20.16;71.87;97259.73;617307;230;66944;-61
2023/06/06 08:24:30;;;;;;;;;;;;;;;20.15;71.91;97248.27;617201;230;65025;-60
2023/06/06 08:26:58;;;;;;;;;;;;;;;20.15;71.83;97250.93;618317;227;64716;-60
2023/06/06 08:29:25;;;;;;;;;;;;;;;20.18;71.40;97260.28;617641;229;65160;-60
2023/06/06 08:31:53;;;;;;;;;;;;;;;20.18;71.65;97252.28;617516;229;62894;-59
2023/06/06 08:34:22;;;;;;;;;;;;;;;20.17;71.88;97256.82;617684;229;65395;-59
2023/06/06 08:36:50;;;;;;;;;;;;;;;20.17;72.14;97248.81;617590;229;64857;-59
2023/06/06 08:39:20;;;;;;;;;;;;;;;20.17;72.07;97253.35;617601;229;65111;-59
2023/06/06 08:41:52;;;;;;;;;;;;;;;20.17;72.10;97253.35;617636;229;67395;-59
2023/06/06 08:44:21;;;;;;;;;;;;;;;20.16;72.11;97255.22;617643;229;65172;-60
2023/06/06 08:46:52;;;;;;;;;;;;;;;20.17;72.15;97248.02;617516;229;64945;-59
2023/06/06 08:49:20;;;;;;;;;;;;;;;20.15;72.17;97245.59;617673;229;67177;-60
2023/06/06 08:51:48;;;;;;;;;;;;;;;20.16;72.16;97247.22;617567;229;66992;-59
2023/06/06 08:54:17;;;;;;;;;;;;;;;20.16;72.10;97252.55;617567;229;64986;-59
2023/06/06 08:56:45;;;;;;;;;;;;;;;20.17;72.10;97248.02;617525;229;66993;-59
2023/06/06 08:59:14;;;;;;;;;;;;;;;20.17;72.14;97248.81;617538;229;67052;-60
2023/06/06 09:01:42;;;;;;;;;;;;;;;20.17;72.15;97248.81;617562;229;62899;-61
2023/06/06 09:04:09;;;;;;;;;;;;;;;20.17;72.16;97248.02;617602;229;65549;-61
2023/06/06 09:06:43;;;;;;;;;;;;;;;20.17;72.10;97253.35;617553;229;66965;-61
2023/06/06 09:09:09;;;;;;;;;;;;;;;20.17;72.10;97246.14;617591;227;62890;-61
2023/06/06 09:11:37;;;;;;;;;;;;;;;20.17;72.07;97243.48;617595;229;64926;-60
2023/06/06 09:14:07;;;;;;;;;;;;;;;20.17;72.08;97243.48;617624;229;64644;-61
2023/06/06 09:16:35;;;;;;;;;;;;;;;20.20;72.05;97244.03;617639;229;65157;-61
2023/06/06 09:19:03;;;;;;;;;;;;;;;20.18;72.04;97242.41;617648;229;67194;-61
2023/06/06 09:21:33;;;;;;;;;;;;;;;20.19;72.09;97240.56;617539;229;67332;-61
2023/06/06 09:24:01;;;;;;;;;;;;;;;20.20;72.06;97236.02;617539;229;62908;-60
2023/06/06 09:26:30;;;;;;;;;;;;;;;20.20;72.03;97241.36;617562;229;67215;-61
2023/06/06 09:28:59;;;;;;;;;;;;;;;20.20;71.99;97244.03;617610;229;66993;-61
2023/06/06 09:31:32;;;;;;;;;;;;;;;20.20;71.98;97242.16;617459;228;65155;-60
2023/06/06 09:34:00;;;;;;;;;;;;;;;20.20;71.87;97244.03;617630;229;65112;-60
2023/06/06 09:36:29;;;;;;;;;;;;;;;20.21;71.92;97237.62;617512;229;65075;-60
2023/06/06 09:38:58;;;;;;;;;;;;;;;20.20;72.00;97238.69;617642;229;62956;-60
2023/06/06 09:41:27;;;;;;;;;;;;;;;20.21;72.08;97245.62;617490;228;64673;-60
2023/06/06 09:43:55;;;;;;;;;;;;;;;20.20;72.02;97236.02;617563;229;66322;-60
2023/06/06 09:46:24;;;;;;;;;;;;;;;20.21;71.97;97242.95;617573;229;62957;-60
2023/06/06 09:49:03;;;;;;;;;;;;;;;20.21;72.04;97229.61;617579;229;67543;-60
2023/06/06 09:51:28;;;;;;;;;;;;;;;20.20;72.17;97233.36;617396;228;64956;-60
2023/06/06 09:53:56;;;;;;;;;;;;;;;20.21;72.22;97229.61;617638;229;62829;-60
2023/06/06 09:56:24;;;;;;;;;;;;;;;20.19;72.17;97232.56;617639;229;67074;-60
2023/06/06 09:58:53;;;;;;;;;;;;;;;20.21;72.04;97232.28;617615;229;64950;-60
2023/06/06 10:01:23;;;;;;;;;;;;;;;20.21;71.96;97224.27;617570;229;62715;-60
2023/06/06 10:03:51;;;;;;;;;;;;;;;20.21;71.97;97221.61;617338;228;65257;-60
2023/06/06 10:06:19;;;;;;;;;;;;;;;20.21;72.02;97217.06;617579;229;66903;-60
2023/06/06 10:08:48;;;;;;;;;;;;;;;20.22;72.03;97220.56;617663;229;63087;-61
2023/06/06 10:11:15;;;;;;;;;;;;;;;20.21;71.97;97222.41;617528;229;64936;-60
2023/06/06 10:13:44;;;;;;;;;;;;;;;20.22;72.05;97215.23;617601;229;64894;-60
2023/06/06 10:16:12;;;;;;;;;;;;;;;20.21;71.57;97211.73;617603;229;65042;-62
2023/06/06 10:18:41;;;;;;;;;;;;;;;20.26;71.25;97213.63;617562;229;67218;-62
2023/06/06 10:21:09;;;;;;;;;;;;;;;20.26;71.43;97213.63;617667;229;67057;-62
2023/06/06 10:23:37;;;;;;;;;;;;;;;20.27;71.33;97216.05;617615;229;65034;-59
2023/06/06 10:26:05;;;;;;;;;;;;;;;20.29;70.24;97218.44;617575;229;64992;-59
2023/06/06 10:28:34;;;;;;;;;;;;;;;20.29;69.16;97218.44;617642;229;64646;-59
2023/06/06 10:31:06;;;;;;;;;;;;;;;20.27;70.83;97213.38;617663;229;65024;-60
2023/06/06 10:33:42;;;;;;;;;;;;;;;20.27;71.38;97217.89;617594;229;64868;-60
2023/06/06 10:36:09;;;;;;;;;;;;;;;20.26;71.55;97202.95;617508;228;67382;-61
2023/06/06 10:38:37;;;;;;;;;;;;;;;20.26;71.62;97208.29;617599;229;65063;-60
2023/06/06 10:41:17;;;;;;;;;;;;;;;20.26;71.71;97202.95;617556;229;65090;-61
2023/06/06 10:43:46;;;;;;;;;;;;;;;20.25;71.69;97202.16;617656;229;67128;-61
2023/06/06 10:46:14;;;;;;;;;;;;;;;20.25;71.69;97196.02;617599;229;65020;-61
2023/06/06 10:48:43;;;;;;;;;;;;;;;20.24;71.72;97211.20;617587;229;67168;-61
2023/06/06 10:51:24;;;;;;;;;;;;;;;20.26;71.60;97201.08;617728;229;64832;-61
2023/06/06 10:54:09;;;;;;;;;;;;;;;20.25;71.75;97206.70;614806;228;65052;-60
2023/06/06 10:56:38;;;;;;;;;;;;;;;20.25;71.99;97201.36;617629;229;66733;-60
2023/06/06 10:59:07;;;;;;;;;;;;;;;20.24;71.94;97205.87;617556;228;64718;-60
2023/06/06 11:01:36;;;;;;;;;;;;;;;20.24;71.74;97194.39;617499;228;62915;-59
2023/06/06 11:04:05;;;;;;;;;;;;;;;20.25;71.69;97190.68;617639;229;67234;-59
2023/06/06 11:06:32;;;;;;;;;;;;;;;20.25;71.87;97185.34;617386;228;64530;-61
2023/06/06 11:09:00;;;;;;;;;;;;;;;20.25;71.90;97186.14;617586;229;62984;-60
2023/06/06 11:11:32;;;;;;;;;;;;;;;20.26;72.03;97184.27;617657;229;64633;-60
2023/06/06 11:14:01;;;;;;;;;;;;;;;20.25;72.26;97186.14;617519;229;66791;-60
2023/06/06 11:16:30;;;;;;;;;;;;;;;20.25;72.32;97178.13;617536;229;65048;-60
2023/06/06 11:19:00;;;;;;;;;;;;;;;20.26;72.06;97173.59;618616;227;67213;-60
2023/06/06 11:21:27;;;;;;;;;;;;;;;20.25;72.10;97159.45;624528;226;67091;-60
2023/06/06 11:23:56;;;;;;;;;;;;;;;20.25;72.24;97174.67;624659;227;65029;-61
2023/06/06 11:26:25;;;;;;;;;;;;;;;20.27;72.19;97167.18;624606;227;64956;-60
2023/06/06 11:28:53;;;;;;;;;;;;;;;20.26;72.18;97166.39;624443;227;64858;-59
2023/06/06 11:31:21;;;;;;;;;;;;;;;20.26;72.08;97162.92;624762;227;65148;-60
2023/06/06 11:33:51;;;;;;;;;;;;;;;20.26;72.07;97158.37;624727;227;67258;-59
2023/06/06 11:36:19;;;;;;;;;;;;;;;20.27;72.30;97156.50;624717;227;67011;-60
2023/06/06 11:38:47;;;;;;;;;;;;;;;20.27;72.34;97160.00;624575;227;62924;-59
2023/06/06 11:41:15;;;;;;;;;;;;;;;20.27;72.34;97157.34;624612;227;67192;-60
2023/06/06 11:43:50;;;;;;;;;;;;;;;20.27;72.30;97154.67;624734;227;64708;-59
2023/06/06 11:46:17;;;;;;;;;;;;;;;20.28;70.23;97160.80;624402;227;65291;-61
2023/06/06 11:48:45;;;;;;;;;;;;;;;20.29;70.97;97159.72;624190;227;67933;-60
2023/06/06 11:51:13;;;;;;;;;;;;;;;20.28;70.73;97153.59;623466;227;67375;-61
2023/06/06 11:53:41;;;;;;;;;;;;;;;20.30;70.37;97159.47;623465;227;65066;-60
2023/06/06 11:56:16;;;;;;;;;;;;;;;20.31;70.93;97152.27;623989;227;66976;-61
2023/06/06 11:58:43;;;;;;;;;;;;;;;20.31;70.92;97157.60;623724;227;67121;-61
2023/06/06 12:01:11;;;;;;;;;;;;;;;20.31;71.25;97154.94;623778;227;65720;-60
2023/06/06 12:03:39;;;;;;;;;;;;;;;20.30;71.20;97148.00;624475;227;64934;-60
2023/06/06 12:06:07;;;;;;;;;;;;;;;20.30;70.93;97150.67;624698;227;64902;-61
2023/06/06 12:08:34;;;;;;;;;;;;;;;20.31;71.01;97146.92;624683;227;65219;-62
2023/06/06 12:11:26;;;;;;;;;;;;;;;20.31;71.01;97146.92;624754;227;66829;-60
2023/06/06 12:13:50;;;;;;;;;;;;;;;20.31;69.66;97145.05;624450;226;64910;-59
2023/06/06 12:16:22;;;;;;;;;;;;;;;20.32;70.06;97140.52;624706;227;62944;-60
2023/06/06 12:18:50;;;;;;;;;;;;;;;20.32;70.30;97143.18;624597;226;67422;-60
2023/06/06 12:21:18;;;;;;;;;;;;;;;20.32;69.76;97141.31;624698;227;67057;-59
2023/06/06 12:23:45;;;;;;;;;;;;;;;20.32;69.56;97140.52;624742;227;62885;-60
2023/06/06 12:26:16;;;;;;;;;;;;;;;20.32;68.54;97137.84;624713;227;64984;-60
2023/06/06 12:28:58;;;;;;;;;;;;;;;20.32;67.75;97143.98;624676;227;65016;-60
2023/06/06 12:31:32;;;;;;;;;;;;;;;20.33;69.43;97140.27;624747;227;63835;-59
2023/06/06 12:34:00;;;;;;;;;;;;;;;20.33;67.94;97142.14;624687;227;67815;-59
2023/06/06 12:36:28;;;;;;;;;;;;;;;20.34;68.89;97135.72;624740;227;67015;-59
2023/06/06 12:38:59;;;;;;;;;;;;;;;20.34;71.34;97136.52;624775;227;65214;-60
2023/06/06 12:41:28;;;;;;;;;;;;;;;20.33;71.94;97131.46;624688;227;67255;-59
2023/06/06 12:43:56;;;;;;;;;;;;;;;20.32;71.87;97129.84;623317;226;64913;-60
2023/06/06 12:46:24;;;;;;;;;;;;;;;20.32;71.35;97140.52;624711;227;62898;-60
2023/06/06 12:48:51;;;;;;;;;;;;;;;20.32;72.02;97138.64;624719;227;67139;-60
2023/06/06 12:51:18;;;;;;;;;;;;;;;20.31;72.21;97137.05;623953;227;64913;-60
2023/06/06 12:53:46;;;;;;;;;;;;;;;20.31;72.26;97134.38;621118;227;62759;-60
2023/06/06 12:56:14;;;;;;;;;;;;;;;20.32;72.31;97135.97;621778;227;67253;-60